sensor_id;sensor_type;location;lat;lon;timestamp;temperature;humidity
37285;DHT22;23172;53.550;9.964;2023-05-29T00:02:46;16.90;53.80
37285;DHT22;23172;53.550;9.964;2023-05-29T00:07:49;16.90;54.00
37285;DHT22;23172;53.550;9.964;2023-05-29T00:12:51;16.90;54.20
37285;DHT22;23172;53.550;9.964;2023-05-29T00:17:53;16.80;55.10
37285;DHT22;23172;53.550;9.964;2023-05-29T00:22:56;16.60;54.70
37285;DHT22;23172;53.550;9.964;2023-05-29T00:27:58;16.50;54.90
37285;DHT22;23172;53.550;9.964;2023-05-29T00:33:00;16.50;54.90
37285;DHT22;23172;53.550;9.964;2023-05-29T00:38:04;16.40;55.00
37285;DHT22;23172;53.550;9.964;2023-05-29T00:43:05;16.30;55.10
37285;DHT22;23172;53.550;9.964;2023-05-29T00:48:07;16.20;55.10
37285;DHT22;23172;53.550;9.964;2023-05-29T00:53:11;16.20;55.30
37285;DHT22;23172;53.550;9.964;2023-05-29T00:58:13;16.00;55.30
37285;DHT22;23172;53.550;9.964;2023-05-29T01:03:15;15.90;55.50
37285;DHT22;23172;53.550;9.964;2023-05-29T01:08:19;15.80;55.60
37285;DHT22;23172;53.550;9.964;2023-05-29T01:13:24;15.80;55.60
37285;DHT22;23172;53.550;9.964;2023-05-29T01:18:37;15.70;55.80
37285;DHT22;23172;53.550;9.964;2023-05-29T01:23:52;15.60;55.70
37285;DHT22;23172;53.550;9.964;2023-05-29T01:28:57;15.50;55.70
37285;DHT22;23172;53.550;9.964;2023-05-29T01:34:02;15.40;55.70
37285;DHT22;23172;53.550;9.964;2023-05-29T01:39:04;15.30;55.70
37285;DHT22;23172;53.550;9.964;2023-05-29T01:44:09;15.30;55.70
37285;DHT22;23172;53.550;9.964;2023-05-29T01:49:11;15.20;55.80
37285;DHT22;23172;53.550;9.964;2023-05-29T01:54:13;15.10;55.90
37285;DHT22;23172;53.550;9.964;2023-05-29T01:59:17;15.00;56.10
37285;DHT22;23172;53.550;9.964;2023-05-29T02:04:20;15.00;56.20
37285;DHT22;23172;53.550;9.964;2023-05-29T02:09:22;14.90;56.30
37285;DHT22;23172;53.550;9.964;2023-05-29T02:14:25;14.80;56.50
37285;DHT22;23172;53.550;9.964;2023-05-29T02:19:27;14.70;56.70
37285;DHT22;23172;53.550;9.964;2023-05-29T02:24:29;14.70;56.80
37285;DHT22;23172;53.550;9.964;2023-05-29T02:29:32;14.60;56.70
37285;DHT22;23172;53.550;9.964;2023-05-29T02:34:34;14.50;56.80
37285;DHT22;23172;53.550;9.964;2023-05-29T02:39:36;14.40;57.10
37285;DHT22;23172;53.550;9.964;2023-05-29T02:44:39;14.50;57.00
37285;DHT22;23172;53.550;9.964;2023-05-29T02:49:41;14.50;56.90
37285;DHT22;23172;53.550;9.964;2023-05-29T02:54:43;14.40;57.00
37285;DHT22;23172;53.550;9.964;2023-05-29T02:59:46;14.40;57.20
37285;DHT22;23172;53.550;9.964;2023-05-29T03:04:48;14.30;57.30
37285;DHT22;23172;53.550;9.964;2023-05-29T03:09:50;14.30;57.40
37285;DHT22;23172;53.550;9.964;2023-05-29T03:14:54;14.20;57.40
37285;DHT22;23172;53.550;9.964;2023-05-29T03:19:56;14.20;57.50
37285;DHT22;23172;53.550;9.964;2023-05-29T03:24:59;14.20;57.50
37285;DHT22;23172;53.550;9.964;2023-05-29T03:30:02;14.20;57.50
37285;DHT22;23172;53.550;9.964;2023-05-29T03:35:04;14.00;57.60
37285;DHT22;23172;53.550;9.964;2023-05-29T03:40:07;13.90;58.00
37285;DHT22;23172;53.550;9.964;2023-05-29T03:45:11;13.90;58.10
37285;DHT22;23172;53.550;9.964;2023-05-29T03:50:13;13.90;58.20
37285;DHT22;23172;53.550;9.964;2023-05-29T03:55:16;13.90;58.20
37285;DHT22;23172;53.550;9.964;2023-05-29T04:00:19;13.80;58.20
37285;DHT22;23172;53.550;9.964;2023-05-29T04:05:21;13.90;58.30
37285;DHT22;23172;53.550;9.964;2023-05-29T04:10:23;13.90;58.40
37285;DHT22;23172;53.550;9.964;2023-05-29T04:15:26;13.80;58.40
37285;DHT22;23172;53.550;9.964;2023-05-29T04:20:28;13.80;58.50
37285;DHT22;23172;53.550;9.964;2023-05-29T04:25:30;13.80;58.60
37285;DHT22;23172;53.550;9.964;2023-05-29T04:30:34;13.70;58.70
37285;DHT22;23172;53.550;9.964;2023-05-29T04:35:36;13.70;58.90
37285;DHT22;23172;53.550;9.964;2023-05-29T04:40:38;13.70;58.90
37285;DHT22;23172;53.550;9.964;2023-05-29T04:45:42;13.80;58.80
37285;DHT22;23172;53.550;9.964;2023-05-29T04:50:44;13.90;58.60
37285;DHT22;23172;53.550;9.964;2023-05-29T04:55:46;13.80;58.60
37285;DHT22;23172;53.550;9.964;2023-05-29T05:00:49;13.80;58.80
37285;DHT22;23172;53.550;9.964;2023-05-29T05:05:51;13.90;58.70
37285;DHT22;23172;53.550;9.964;2023-05-29T05:10:53;14.00;58.60
37285;DHT22;23172;53.550;9.964;2023-05-29T05:15:56;14.00;58.50
37285;DHT22;23172;53.550;9.964;2023-05-29T05:20:58;14.10;58.30
37285;DHT22;23172;53.550;9.964;2023-05-29T05:26:00;14.00;58.40
37285;DHT22;23172;53.550;9.964;2023-05-29T05:31:03;14.10;58.60
37285;DHT22;23172;53.550;9.964;2023-05-29T05:36:05;14.10;58.30
37285;DHT22;23172;53.550;9.964;2023-05-29T05:41:07;14.10;58.40
37285;DHT22;23172;53.550;9.964;2023-05-29T05:46:11;14.10;58.40
37285;DHT22;23172;53.550;9.964;2023-05-29T05:51:13;14.10;58.40
37285;DHT22;23172;53.550;9.964;2023-05-29T05:56:15;14.10;58.40
37285;DHT22;23172;53.550;9.964;2023-05-29T06:01:18;14.10;58.40
37285;DHT22;23172;53.550;9.964;2023-05-29T06:06:20;14.20;58.20
37285;DHT22;23172;53.550;9.964;2023-05-29T06:11:22;14.40;57.90
37285;DHT22;23172;53.550;9.964;2023-05-29T06:16:25;14.50;57.70
37285;DHT22;23172;53.550;9.964;2023-05-29T06:21:27;14.40;57.50
37285;DHT22;23172;53.550;9.964;2023-05-29T06:26:29;14.50;57.40
37285;DHT22;23172;53.550;9.964;2023-05-29T06:31:32;14.60;57.10
37285;DHT22;23172;53.550;9.964;2023-05-29T06:36:34;15.00;56.50
37285;DHT22;23172;53.550;9.964;2023-05-29T06:41:36;15.40;55.70
37285;DHT22;23172;53.550;9.964;2023-05-29T06:46:39;15.80;54.90
37285;DHT22;23172;53.550;9.964;2023-05-29T06:51:41;16.20;53.80
37285;DHT22;23172;53.550;9.964;2023-05-29T06:56:43;16.00;53.80
37285;DHT22;23172;53.550;9.964;2023-05-29T07:01:46;16.00;53.90
37285;DHT22;23172;53.550;9.964;2023-05-29T07:06:48;16.00;53.90
37285;DHT22;23172;53.550;9.964;2023-05-29T07:11:50;16.20;53.30
37285;DHT22;23172;53.550;9.964;2023-05-29T07:16:53;16.20;53.00
37285;DHT22;23172;53.550;9.964;2023-05-29T07:21:55;16.20;53.20
37285;DHT22;23172;53.550;9.964;2023-05-29T07:26:57;16.20;53.30
37285;DHT22;23172;53.550;9.964;2023-05-29T07:32:00;16.20;53.20
37285;DHT22;23172;53.550;9.964;2023-05-29T07:37:06;16.20;53.30
37285;DHT22;23172;53.550;9.964;2023-05-29T07:42:07;16.20;53.10
37285;DHT22;23172;53.550;9.964;2023-05-29T07:47:11;16.30;52.90
37285;DHT22;23172;53.550;9.964;2023-05-29T07:52:13;16.20;53.10
37285;DHT22;23172;53.550;9.964;2023-05-29T07:57:14;16.40;53.00
37285;DHT22;23172;53.550;9.964;2023-05-29T08:02:18;17.40;51.90
37285;DHT22;23172;53.550;9.964;2023-05-29T08:07:20;19.60;49.10
37285;DHT22;23172;53.550;9.964;2023-05-29T08:12:22;20.90;46.20
37285;DHT22;23172;53.550;9.964;2023-05-29T08:17:25;22.00;44.30
37285;DHT22;23172;53.550;9.964;2023-05-29T08:22:28;22.30;42.90
37285;DHT22;23172;53.550;9.964;2023-05-29T08:27:31;22.60;42.10
37285;DHT22;23172;53.550;9.964;2023-05-29T08:32:34;23.20;41.70
37285;DHT22;23172;53.550;9.964;2023-05-29T08:37:36;23.40;40.90
37285;DHT22;23172;53.550;9.964;2023-05-29T08:42:44;23.20;40.80
37285;DHT22;23172;53.550;9.964;2023-05-29T08:47:52;23.60;40.80
37285;DHT22;23172;53.550;9.964;2023-05-29T08:52:54;23.50;40.20
37285;DHT22;23172;53.550;9.964;2023-05-29T08:57:58;23.60;39.40
37285;DHT22;23172;53.550;9.964;2023-05-29T09:03:01;23.70;38.80
37285;DHT22;23172;53.550;9.964;2023-05-29T09:08:03;23.80;38.50
37285;DHT22;23172;53.550;9.964;2023-05-29T09:13:05;23.90;38.30
37285;DHT22;23172;53.550;9.964;2023-05-29T09:18:09;23.80;37.30
37285;DHT22;23172;53.550;9.964;2023-05-29T09:23:11;23.90;36.90
37285;DHT22;23172;53.550;9.964;2023-05-29T09:28:13;24.10;36.60
37285;DHT22;23172;53.550;9.964;2023-05-29T09:33:17;24.10;36.00
37285;DHT22;23172;53.550;9.964;2023-05-29T09:38:20;24.00;36.40
37285;DHT22;23172;53.550;9.964;2023-05-29T09:43:22;24.20;35.90
37285;DHT22;23172;53.550;9.964;2023-05-29T09:48:26;24.10;35.80
37285;DHT22;23172;53.550;9.964;2023-05-29T09:53:28;24.00;35.80
37285;DHT22;23172;53.550;9.964;2023-05-29T09:58:30;23.90;35.70
37285;DHT22;23172;53.550;9.964;2023-05-29T10:03:35;25.60;34.00
37285;DHT22;23172;53.550;9.964;2023-05-29T10:08:37;27.40;31.50
37285;DHT22;23172;53.550;9.964;2023-05-29T10:13:42;28.80;29.70
37285;DHT22;23172;53.550;9.964;2023-05-29T10:18:54;29.80;28.40
37285;DHT22;23172;53.550;9.964;2023-05-29T10:23:57;30.50;27.60
37285;DHT22;23172;53.550;9.964;2023-05-29T10:29:12;30.90;27.20
37285;DHT22;23172;53.550;9.964;2023-05-29T10:34:25;31.20;26.80
37285;DHT22;23172;53.550;9.964;2023-05-29T10:39:31;31.40;26.60
37285;DHT22;23172;53.550;9.964;2023-05-29T10:44:40;31.80;26.40
37285;DHT22;23172;53.550;9.964;2023-05-29T10:49:50;32.10;26.10
37285;DHT22;23172;53.550;9.964;2023-05-29T10:54:54;32.20;25.90
37285;DHT22;23172;53.550;9.964;2023-05-29T10:59:58;32.20;25.60
37285;DHT22;23172;53.550;9.964;2023-05-29T11:05:20;32.20;25.10
37285;DHT22;23172;53.550;9.964;2023-05-29T11:10:54;32.40;24.90
37285;DHT22;23172;53.550;9.964;2023-05-29T11:16:13;32.60;24.70
37285;DHT22;23172;53.550;9.964;2023-05-29T11:21:53;32.60;24.40
37285;DHT22;23172;53.550;9.964;2023-05-29T11:27:00;32.60;24.20
37285;DHT22;23172;53.550;9.964;2023-05-29T11:32:11;32.40;24.60
37285;DHT22;23172;53.550;9.964;2023-05-29T11:37:15;32.40;24.50
37285;DHT22;23172;53.550;9.964;2023-05-29T11:42:17;32.40;24.30
37285;DHT22;23172;53.550;9.964;2023-05-29T11:47:20;32.50;24.20
37285;DHT22;23172;53.550;9.964;2023-05-29T11:52:24;32.50;24.30
37285;DHT22;23172;53.550;9.964;2023-05-29T11:57:26;32.60;24.40
37285;DHT22;23172;53.550;9.964;2023-05-29T12:02:30;32.60;24.10
37285;DHT22;23172;53.550;9.964;2023-05-29T12:07:36;32.50;23.80
37285;DHT22;23172;53.550;9.964;2023-05-29T12:12:38;32.20;23.90
37285;DHT22;23172;53.550;9.964;2023-05-29T12:17:40;32.20;23.90
37285;DHT22;23172;53.550;9.964;2023-05-29T12:22:45;32.20;23.90
37285;DHT22;23172;53.550;9.964;2023-05-29T12:27:48;32.10;24.00
37285;DHT22;23172;53.550;9.964;2023-05-29T12:32:51;31.90;24.20
37285;DHT22;23172;53.550;9.964;2023-05-29T12:37:56;32.20;23.90
37285;DHT22;23172;53.550;9.964;2023-05-29T12:42:59;32.10;23.80
37285;DHT22;23172;53.550;9.964;2023-05-29T12:48:03;31.90;23.90
37285;DHT22;23172;53.550;9.964;2023-05-29T12:53:07;32.20;23.80
37285;DHT22;23172;53.550;9.964;2023-05-29T12:58:10;32.20;23.70
37285;DHT22;23172;53.550;9.964;2023-05-29T13:03:12;32.10;23.80
37285;DHT22;23172;53.550;9.964;2023-05-29T13:08:16;32.10;24.00
37285;DHT22;23172;53.550;9.964;2023-05-29T13:13:18;31.90;23.80
37285;DHT22;23172;53.550;9.964;2023-05-29T13:18:20;31.80;23.80
37285;DHT22;23172;53.550;9.964;2023-05-29T13:23:25;31.70;23.30
37285;DHT22;23172;53.550;9.964;2023-05-29T13:28:27;31.60;23.10
37285;DHT22;23172;53.550;9.964;2023-05-29T13:33:29;31.60;23.10
37285;DHT22;23172;53.550;9.964;2023-05-29T13:38:32;31.40;23.20
37285;DHT22;23172;53.550;9.964;2023-05-29T13:43:34;31.30;23.60
37285;DHT22;23172;53.550;9.964;2023-05-29T13:48:36;31.00;23.10
37285;DHT22;23172;53.550;9.964;2023-05-29T13:53:39;31.00;23.30
37285;DHT22;23172;53.550;9.964;2023-05-29T13:58:41;30.90;22.90
37285;DHT22;23172;53.550;9.964;2023-05-29T14:03:43;30.70;23.10
37285;DHT22;23172;53.550;9.964;2023-05-29T14:08:46;30.50;23.50
37285;DHT22;23172;53.550;9.964;2023-05-29T14:13:48;30.40;23.50
37285;DHT22;23172;53.550;9.964;2023-05-29T14:18:50;30.30;23.50
37285;DHT22;23172;53.550;9.964;2023-05-29T14:23:53;30.10;23.60
37285;DHT22;23172;53.550;9.964;2023-05-29T14:28:55;29.90;23.70
37285;DHT22;23172;53.550;9.964;2023-05-29T14:33:57;29.80;25.00
37285;DHT22;23172;53.550;9.964;2023-05-29T14:39:00;29.60;25.70
37285;DHT22;23172;53.550;9.964;2023-05-29T14:44:02;29.50;26.50
37285;DHT22;23172;53.550;9.964;2023-05-29T14:49:04;29.20;26.00
37285;DHT22;23172;53.550;9.964;2023-05-29T14:54:08;29.00;26.20
37285;DHT22;23172;53.550;9.964;2023-05-29T14:59:10;29.00;27.20
37285;DHT22;23172;53.550;9.964;2023-05-29T15:04:12;28.80;27.90
37285;DHT22;23172;53.550;9.964;2023-05-29T15:09:15;28.50;28.60
37285;DHT22;23172;53.550;9.964;2023-05-29T15:14:17;28.20;29.10
37285;DHT22;23172;53.550;9.964;2023-05-29T15:19:19;27.90;29.40
37285;DHT22;23172;53.550;9.964;2023-05-29T15:24:22;27.50;29.80
37285;DHT22;23172;53.550;9.964;2023-05-29T15:29:24;27.20;30.10
37285;DHT22;23172;53.550;9.964;2023-05-29T15:34:26;26.90;30.60
37285;DHT22;23172;53.550;9.964;2023-05-29T15:39:30;26.60;31.20
37285;DHT22;23172;53.550;9.964;2023-05-29T15:44:31;26.40;31.60
37285;DHT22;23172;53.550;9.964;2023-05-29T15:49:34;26.10;31.90
37285;DHT22;23172;53.550;9.964;2023-05-29T15:54:37;25.80;31.90
37285;DHT22;23172;53.550;9.964;2023-05-29T15:59:39;25.40;32.10
37285;DHT22;23172;53.550;9.964;2023-05-29T16:04:41;25.00;33.00
37285;DHT22;23172;53.550;9.964;2023-05-29T16:09:44;24.60;33.90
37285;DHT22;23172;53.550;9.964;2023-05-29T16:14:47;24.30;34.60
37285;DHT22;23172;53.550;9.964;2023-05-29T16:19:49;24.10;35.20
37285;DHT22;23172;53.550;9.964;2023-05-29T16:24:56;24.00;35.60
37285;DHT22;23172;53.550;9.964;2023-05-29T16:29:58;23.80;36.30
37285;DHT22;23172;53.550;9.964;2023-05-29T16:35:00;23.70;37.50
37285;DHT22;23172;53.550;9.964;2023-05-29T16:40:04;23.50;37.60
37285;DHT22;23172;53.550;9.964;2023-05-29T16:45:07;23.40;38.30
37285;DHT22;23172;53.550;9.964;2023-05-29T16:50:09;23.40;38.50
37285;DHT22;23172;53.550;9.964;2023-05-29T16:55:13;23.40;38.90
37285;DHT22;23172;53.550;9.964;2023-05-29T17:00:15;23.10;39.50
37285;DHT22;23172;53.550;9.964;2023-05-29T17:05:17;23.00;39.80
37285;DHT22;23172;53.550;9.964;2023-05-29T17:10:20;23.00;40.00
37285;DHT22;23172;53.550;9.964;2023-05-29T17:15:22;22.80;40.30
37285;DHT22;23172;53.550;9.964;2023-05-29T17:20:24;22.70;40.40
37285;DHT22;23172;53.550;9.964;2023-05-29T17:25:28;22.60;40.30
37285;DHT22;23172;53.550;9.964;2023-05-29T17:30:30;22.40;40.30
37285;DHT22;23172;53.550;9.964;2023-05-29T17:35:32;22.30;40.20
37285;DHT22;23172;53.550;9.964;2023-05-29T17:40:35;22.20;40.20
37285;DHT22;23172;53.550;9.964;2023-05-29T17:45:37;22.10;40.20
37285;DHT22;23172;53.550;9.964;2023-05-29T17:50:39;22.00;40.40
37285;DHT22;23172;53.550;9.964;2023-05-29T17:55:42;21.90;41.20
37285;DHT22;23172;53.550;9.964;2023-05-29T18:00:44;21.80;40.80
37285;DHT22;23172;53.550;9.964;2023-05-29T18:05:47;21.70;41.00
37285;DHT22;23172;53.550;9.964;2023-05-29T18:10:50;21.50;41.10
37285;DHT22;23172;53.550;9.964;2023-05-29T18:15:52;21.30;41.30
37285;DHT22;23172;53.550;9.964;2023-05-29T18:20:54;21.20;41.50
37285;DHT22;23172;53.550;9.964;2023-05-29T18:25:57;20.90;41.40
37285;DHT22;23172;53.550;9.964;2023-05-29T18:30:59;20.70;41.50
37285;DHT22;23172;53.550;9.964;2023-05-29T18:36:01;20.60;41.60
37285;DHT22;23172;53.550;9.964;2023-05-29T18:41:05;20.60;41.40
37285;DHT22;23172;53.550;9.964;2023-05-29T18:46:07;20.40;41.50
37285;DHT22;23172;53.550;9.964;2023-05-29T18:51:09;20.40;41.70
37285;DHT22;23172;53.550;9.964;2023-05-29T18:56:12;20.30;41.80
37285;DHT22;23172;53.550;9.964;2023-05-29T19:01:14;20.10;42.00
37285;DHT22;23172;53.550;9.964;2023-05-29T19:06:17;20.00;42.30
37285;DHT22;23172;53.550;9.964;2023-05-29T19:11:20;19.80;42.60
37285;DHT22;23172;53.550;9.964;2023-05-29T19:16:22;19.80;43.10
37285;DHT22;23172;53.550;9.964;2023-05-29T19:21:24;19.60;44.10
37285;DHT22;23172;53.550;9.964;2023-05-29T19:26:30;19.40;44.90
37285;DHT22;23172;53.550;9.964;2023-05-29T19:31:35;19.40;45.70
37285;DHT22;23172;53.550;9.964;2023-05-29T19:36:36;19.20;46.70
37285;DHT22;23172;53.550;9.964;2023-05-29T19:41:40;19.10;47.70
37285;DHT22;23172;53.550;9.964;2023-05-29T19:46:43;18.90;48.80
37285;DHT22;23172;53.550;9.964;2023-05-29T19:51:49;18.90;49.40
37285;DHT22;23172;53.550;9.964;2023-05-29T19:56:53;18.70;50.50
37285;DHT22;23172;53.550;9.964;2023-05-29T20:01:55;18.60;51.00
37285;DHT22;23172;53.550;9.964;2023-05-29T20:06:57;18.50;51.60
37285;DHT22;23172;53.550;9.964;2023-05-29T20:12:01;18.40;52.30
37285;DHT22;23172;53.550;9.964;2023-05-29T20:17:03;18.20;53.10
37285;DHT22;23172;53.550;9.964;2023-05-29T20:22:08;17.90;54.00
37285;DHT22;23172;53.550;9.964;2023-05-29T20:27:11;17.70;54.70
37285;DHT22;23172;53.550;9.964;2023-05-29T20:32:13;17.70;55.00
37285;DHT22;23172;53.550;9.964;2023-05-29T20:37:15;17.50;56.20
37285;DHT22;23172;53.550;9.964;2023-05-29T20:42:18;17.40;56.00
37285;DHT22;23172;53.550;9.964;2023-05-29T20:47:22;17.40;56.30
37285;DHT22;23172;53.550;9.964;2023-05-29T20:52:23;17.30;56.70
37285;DHT22;23172;53.550;9.964;2023-05-29T20:57:29;17.20;57.10
37285;DHT22;23172;53.550;9.964;2023-05-29T21:02:31;17.10;57.50
37285;DHT22;23172;53.550;9.964;2023-05-29T21:07:33;17.00;57.60
37285;DHT22;23172;53.550;9.964;2023-05-29T21:12:37;17.00;57.70
37285;DHT22;23172;53.550;9.964;2023-05-29T21:17:39;17.00;57.70
37285;DHT22;23172;53.550;9.964;2023-05-29T21:22:43;17.00;57.90
37285;DHT22;23172;53.550;9.964;2023-05-29T21:27:46;16.90;58.10
37285;DHT22;23172;53.550;9.964;2023-05-29T21:32:48;16.80;58.50
37285;DHT22;23172;53.550;9.964;2023-05-29T21:37:52;16.70;58.80
37285;DHT22;23172;53.550;9.964;2023-05-29T21:42:55;16.60;59.00
37285;DHT22;23172;53.550;9.964;2023-05-29T21:47:57;16.60;59.20
37285;DHT22;23172;53.550;9.964;2023-05-29T21:52:59;16.50;59.60
37285;DHT22;23172;53.550;9.964;2023-05-29T21:58:04;16.40;60.80
37285;DHT22;23172;53.550;9.964;2023-05-29T22:03:06;16.30;60.40
37285;DHT22;23172;53.550;9.964;2023-05-29T22:08:08;16.30;60.40
37285;DHT22;23172;53.550;9.964;2023-05-29T22:13:12;16.20;60.60
37285;DHT22;23172;53.550;9.964;2023-05-29T22:18:15;16.20;60.60
37285;DHT22;23172;53.550;9.964;2023-05-29T22:23:17;16.20;60.80
37285;DHT22;23172;53.550;9.964;2023-05-29T22:28:20;16.20;61.10
37285;DHT22;23172;53.550;9.964;2023-05-29T22:33:22;16.10;61.40
37285;DHT22;23172;53.550;9.964;2023-05-29T22:38:24;16.10;61.30
37285;DHT22;23172;53.550;9.964;2023-05-29T22:43:28;16.00;61.60
37285;DHT22;23172;53.550;9.964;2023-05-29T22:48:30;16.00;61.80
37285;DHT22;23172;53.550;9.964;2023-05-29T22:53:32;16.00;61.90
37285;DHT22;23172;53.550;9.964;2023-05-29T22:58:35;15.90;62.20
37285;DHT22;23172;53.550;9.964;2023-05-29T23:03:37;15.90;62.30
37285;DHT22;23172;53.550;9.964;2023-05-29T23:08:39;15.80;62.50
37285;DHT22;23172;53.550;9.964;2023-05-29T23:13:43;15.70;62.80
37285;DHT22;23172;53.550;9.964;2023-05-29T23:18:44;15.70;62.90
37285;DHT22;23172;53.550;9.964;2023-05-29T23:23:46;15.70;63.10
37285;DHT22;23172;53.550;9.964;2023-05-29T23:28:50;15.60;63.40
37285;DHT22;23172;53.550;9.964;2023-05-29T23:33:52;15.60;63.50
37285;DHT22;23172;53.550;9.964;2023-05-29T23:38:54;15.60;63.80
